Time;durP1;ratioP1;P1;durP2;ratioP2;P2;SDS_P1;SDS_P2;PMS_P1;PMS_P2;Temp;Humidity;BMP_temperature;BMP_pressure;BME280_temperature;BME280_humidity;BME280_pressure;Samples;Min_cycle;Max_cycle;Signal;HPM_P1;HPM_P2
2022/11/22 00:00:24;;;;;;;16.67;9.10;;;;;;;-0.99;100.00;96697.22;4202461;28;20480;-73
2022/11/22 00:02:25;;;;;;;15.50;8.70;;;;;;;-1.01;100.00;96688.63;4202093;28;20139;-73
2022/11/22 00:04:25;;;;;;;11.05;7.78;;;;;;;-1.00;100.00;96687.47;4202246;28;20044;-73
2022/11/22 00:06:25;;;;;;;10.68;7.13;;;;;;;-1.04;100.00;96681.19;4202885;28;20387;-73
2022/11/22 00:08:26;;;;;;;11.13;7.15;;;;;;;-1.02;100.00;96676.19;4202710;28;20563;-73
2022/11/22 00:10:26;;;;;;;10.07;6.15;;;;;;;-1.03;100.00;96680.81;4202358;28;20083;-73
2022/11/22 00:12:27;;;;;;;9.32;6.05;;;;;;;-1.01;100.00;96685.91;4202228;28;20034;-73
2022/11/22 00:14:27;;;;;;;13.63;6.80;;;;;;;-1.03;100.00;96672.69;4202606;28;20380;-73
2022/11/22 00:16:28;;;;;;;9.48;6.45;;;;;;;-1.02;100.00;96676.19;4202355;28;20507;-73
2022/11/22 00:18:29;;;;;;;10.35;5.68;;;;;;;-1.03;100.00;96677.31;4202409;28;20044;-73
2022/11/22 00:20:29;;;;;;;10.48;6.43;;;;;;;-1.04;100.00;96665.69;4202285;28;20068;-73
2022/11/22 00:22:31;;;;;;;8.20;5.47;;;;;;;-1.01;100.00;96662.25;4202783;28;20050;-73
2022/11/22 00:24:31;;;;;;;9.85;5.80;;;;;;;-1.03;100.00;96675.41;4205611;28;20375;-73
2022/11/22 00:26:31;;;;;;;8.50;4.88;;;;;;;-1.03;100.00;96661.81;4205362;28;20043;-73
2022/11/22 00:28:32;;;;;;;25.45;11.50;;;;;;;-1.02;100.00;96671.53;4205930;28;20090;-73
2022/11/22 00:30:32;;;;;;;13.73;7.68;;;;;;;-1.01;100.00;96675.84;4205464;28;20528;-73
2022/11/22 00:32:32;;;;;;;16.88;8.65;;;;;;;-1.01;100.00;96667.69;4204628;28;20047;-73
2022/11/22 00:34:33;;;;;;;14.27;7.43;;;;;;;-1.00;100.00;96671.19;4205758;28;20396;-73
2022/11/22 00:36:33;;;;;;;12.25;6.85;;;;;;;-0.99;100.00;96670.88;4205374;28;20047;-73
2022/11/22 00:38:33;;;;;;;10.63;6.13;;;;;;;-0.99;100.00;96665.44;4206162;28;20115;-73
2022/11/22 00:40:34;;;;;;;13.00;6.15;;;;;;;-0.96;100.00;96663.94;4205620;28;20471;-73
2022/11/22 00:42:34;;;;;;;13.23;7.00;;;;;;;-0.94;100.00;96662.47;4203576;28;20135;-73
2022/11/22 00:44:34;;;;;;;18.55;9.43;;;;;;;-0.91;100.00;96660.97;4205712;28;20461;-73
2022/11/22 00:46:35;;;;;;;36.15;15.13;;;;;;;-0.89;100.00;96650.56;4205991;28;20071;-73
2022/11/22 00:48:35;;;;;;;29.15;13.82;;;;;;;-0.86;100.00;96653.38;4205189;28;20116;-73
2022/11/22 00:50:36;;;;;;;24.75;10.75;;;;;;;-0.86;100.00;96653.38;4204686;28;20071;-73
2022/11/22 00:52:36;;;;;;;22.95;10.52;;;;;;;-0.85;100.00;96656.88;4204511;28;20137;-73
2022/11/22 00:54:36;;;;;;;27.15;13.57;;;;;;;-0.81;100.00;96644.19;4205167;28;20339;-73
2022/11/22 00:56:36;;;;;;;33.70;15.25;;;;;;;-0.79;100.00;96647.34;4205587;28;20437;-73
2022/11/22 00:58:37;;;;;;;20.17;9.27;;;;;;;-0.78;100.00;96654.34;4205078;28;20170;-73
2022/11/22 01:00:37;;;;;;;19.77;9.93;;;;;;;-0.77;100.00;96655.91;4205694;28;20048;-73
2022/11/22 01:02:37;;;;;;;15.15;8.38;;;;;;;-0.72;100.00;96652.16;4203654;28;20059;-73
2022/11/22 01:04:38;;;;;;;17.92;9.32;;;;;;;-0.74;100.00;96641.66;4205390;28;20074;-73
2022/11/22 01:06:38;;;;;;;15.48;7.45;;;;;;;-0.73;100.00;96634.31;4205759;28;20072;-73
2022/11/22 01:08:38;;;;;;;14.80;6.60;;;;;;;-0.66;100.00;96645.34;4204798;28;20036;-73
2022/11/22 01:10:39;;;;;;;10.45;6.05;;;;;;;-0.66;100.00;96645.34;4204908;28;20071;-73
2022/11/22 01:12:39;;;;;;;11.52;5.60;;;;;;;-0.59;100.00;96638.16;4204607;28;20553;-73
2022/11/22 01:14:40;;;;;;;11.25;5.50;;;;;;;-0.59;100.00;96640.84;4204849;28;20028;-73
2022/11/22 01:16:40;;;;;;;13.63;7.47;;;;;;;-0.59;100.00;96638.16;4204643;28;20040;-73
2022/11/22 01:18:41;;;;;;;42.33;19.00;;;;;;;-0.61;100.00;96632.28;4204588;28;20043;-73
2022/11/22 01:20:42;;;;;;;32.30;14.23;;;;;;;-0.60;100.00;96633.84;4204929;28;20044;-73
2022/11/22 01:22:42;;;;;;;24.00;11.07;;;;;;;-0.62;100.00;96625.28;4204273;28;20047;-73
2022/11/22 01:24:43;;;;;;;29.67;13.40;;;;;;;-0.61;100.00;96626.06;4204879;28;20507;-74
2022/11/22 01:26:43;;;;;;;27.35;11.93;;;;;;;-0.61;100.00;96624.13;4204866;28;20585;-73
2022/11/22 01:28:43;;;;;;;17.40;9.02;;;;;;;-0.64;100.00;96627.56;4203632;28;20064;-73
2022/11/22 01:30:44;;;;;;;20.73;8.85;;;;;;;-0.63;100.00;96620.19;4203767;28;20358;-73
2022/11/22 01:32:44;;;;;;;16.90;8.90;;;;;;;-0.59;100.00;96621.84;4202250;28;20094;-73
2022/11/22 01:34:45;;;;;;;14.95;7.22;;;;;;;-0.61;100.00;96621.41;4203287;28;20071;-73
2022/11/22 01:36:47;;;;;;;13.27;7.07;;;;;;;-0.64;100.00;96615.91;4203830;28;20578;-73
2022/11/22 01:38:47;;;;;;;12.23;7.00;;;;;;;-0.62;100.00;96622.56;4205420;28;20068;-73
2022/11/22 01:40:47;;;;;;;11.82;7.15;;;;;;;-0.52;100.00;96626.66;4204735;28;20496;-73
2022/11/22 01:42:49;;;;;;;13.95;6.93;;;;;;;-0.53;100.00;96606.09;4203315;28;20546;-73
2022/11/22 01:44:51;;;;;;;11.23;6.18;;;;;;;-0.46;100.00;96613.63;4204123;28;20080;-73
2022/11/22 01:46:54;;;;;;;9.47;5.07;;;;;;;-0.43;100.00;96610.97;4204228;28;20040;-74
2022/11/22 01:48:59;;;;;;;14.85;6.43;;;;;;;-0.47;100.00;96601.97;4204537;28;20062;-73
2022/11/22 01:51:18;;;;;;;9.25;5.95;;;;;;;-0.46;100.00;96595.38;4203315;28;20040;-74
2022/11/22 01:53:27;;;;;;;8.27;5.18;;;;;;;-0.44;100.00;96603.97;4203123;28;20059;-73
2022/11/22 01:55:27;;;;;;;9.40;4.97;;;;;;;-0.45;100.00;96596.97;4204539;28;20086;-74
2022/11/22 01:57:32;;;;;;;9.15;5.28;;;;;;;-0.49;100.00;96593.38;4204198;28;20052;-73
2022/11/22 01:59:34;;;;;;;9.82;4.43;;;;;;;-0.51;100.00;96598.38;4204415;28;20056;-74
2022/11/22 02:01:35;;;;;;;7.55;5.10;;;;;;;-0.53;100.00;96597.16;4204024;28;20044;-73
2022/11/22 02:03:39;;;;;;;8.23;4.75;;;;;;;-0.59;100.00;96602.03;4204056;28;20048;-74
2022/11/22 02:05:40;;;;;;;7.88;4.72;;;;;;;-0.60;100.00;96603.19;4203629;28;20055;-73
2022/11/22 02:08:00;;;;;;;7.95;5.05;;;;;;;-0.62;100.00;96611.69;4203933;28;20044;-73
2022/11/22 02:10:01;;;;;;;9.45;4.43;;;;;;;-0.60;100.00;96603.97;4203914;28;20066;-73
2022/11/22 02:12:05;;;;;;;6.35;4.50;;;;;;;-0.60;100.00;96601.25;4203601;28;20533;-73
2022/11/22 02:14:08;;;;;;;9.10;4.55;;;;;;;-0.62;100.00;96595.41;4203473;28;20440;-74
2022/11/22 02:16:09;;;;;;;7.45;4.15;;;;;;;-0.62;100.00;96594.59;4203024;28;20024;-73
2022/11/22 02:18:10;;;;;;;7.33;4.50;;;;;;;-0.64;100.00;96600.41;4204201;28;20600;-74
2022/11/22 02:20:11;;;;;;;9.93;4.65;;;;;;;-0.62;100.00;96602.75;4203457;28;20024;-73
2022/11/22 02:22:35;;;;;;;8.88;4.38;;;;;;;-0.63;100.00;96593.81;4203196;28;20372;-73
2022/11/22 02:24:41;;;;;;;7.35;4.22;;;;;;;-0.64;100.00;96597.69;4203650;28;20378;-74
2022/11/22 02:26:41;;;;;;;7.18;4.50;;;;;;;-0.65;100.00;96604.25;4203903;28;20044;-73
2022/11/22 02:28:42;;;;;;;10.73;4.13;;;;;;;-0.63;100.00;96596.53;4204258;28;20417;-74
2022/11/22 02:30:42;;;;;;;6.35;3.83;;;;;;;-0.63;100.00;96599.25;4203005;28;20063;-73
2022/11/22 02:32:43;;;;;;;8.25;4.63;;;;;;;-0.64;100.00;96599.59;4202717;28;20731;-73
2022/11/22 02:34:46;;;;;;;6.28;4.45;;;;;;;-0.59;100.00;96602.84;4203805;28;20040;-73
2022/11/22 02:36:50;;;;;;;7.75;4.25;;;;;;;-0.54;100.00;96592.84;4203729;28;20666;-74
2022/11/22 02:38:50;;;;;;;6.25;4.07;;;;;;;-0.53;100.00;96589.00;4203664;28;20047;-73
2022/11/22 02:40:55;;;;;;;6.55;4.15;;;;;;;-0.50;100.00;96580.91;4203359;28;20036;-74
2022/11/22 02:43:03;;;;;;;6.00;3.97;;;;;;;-0.47;100.00;96585.66;4202581;28;20462;-74
2022/11/22 02:45:04;;;;;;;6.90;3.70;;;;;;;-0.45;100.00;96593.47;4202912;28;20296;-74
2022/11/22 02:47:04;;;;;;;6.82;4.13;;;;;;;-0.46;100.00;96592.69;4203936;28;20090;-73
2022/11/22 02:49:05;;;;;;;7.45;4.38;;;;;;;-0.46;100.00;96598.09;4203529;28;20044;-74
2022/11/22 02:51:05;;;;;;;5.57;4.03;;;;;;;-0.42;100.00;96600.91;4203280;28;20052;-74
2022/11/22 02:53:07;;;;;;;7.70;4.22;;;;;;;-0.39;100.00;96605.66;4202637;28;20388;-74
2022/11/22 02:55:08;;;;;;;7.30;4.30;;;;;;;-0.41;100.00;96608.72;4204032;28;20044;-73
2022/11/22 02:57:08;;;;;;;7.57;4.30;;;;;;;-0.37;100.00;96609.56;4201488;28;20136;-73
2022/11/22 02:59:08;;;;;;;7.75;4.55;;;;;;;-0.34;100.00;96610.78;4202201;28;20492;-73
2022/11/22 03:01:10;;;;;;;10.88;5.60;;;;;;;-0.24;100.00;96613.00;4203393;28;20458;-73
2022/11/22 03:03:11;;;;;;;8.18;4.72;;;;;;;-0.22;100.00;96605.28;4202346;28;20400;-74
2022/11/22 03:05:11;;;;;;;10.55;4.75;;;;;;;-0.25;100.00;96597.03;4203341;28;20118;-73
2022/11/22 03:07:11;;;;;;;6.93;4.57;;;;;;;-0.30;100.00;96587.22;4202811;28;20051;-73
2022/11/22 03:09:12;;;;;;;7.65;4.80;;;;;;;-0.33;100.00;96585.22;4203298;28;20044;-73
2022/11/22 03:11:12;;;;;;;10.25;6.15;;;;;;;-0.34;100.00;96583.63;4202939;28;20051;-74
2022/11/22 03:13:12;;;;;;;9.48;5.55;;;;;;;-0.37;100.00;96582.41;4202068;28;20040;-74
2022/11/22 03:15:13;;;;;;;8.13;5.20;;;;;;;-0.40;100.00;96588.56;4203381;28;20044;-74
2022/11/22 03:17:13;;;;;;;8.73;5.55;;;;;;;-0.41;100.00;96586.97;4202630;28;20342;-73
2022/11/22 03:19:13;;;;;;;12.18;5.63;;;;;;;-0.42;100.00;96587.31;4203077;28;20116;-74
2022/11/22 03:21:14;;;;;;;7.43;5.07;;;;;;;-0.43;100.00;96591.16;4203370;28;20353;-73
2022/11/22 03:23:14;;;;;;;8.20;5.30;;;;;;;-0.45;100.00;96601.59;4201834;28;20147;-74
2022/11/22 03:25:14;;;;;;;12.38;5.50;;;;;;;-0.45;100.00;96602.41;4202889;28;20467;-73
2022/11/22 03:27:15;;;;;;;7.78;5.15;;;;;;;-0.47;100.00;96595.75;4202925;28;20040;-74
2022/11/22 03:29:16;;;;;;;11.70;5.43;;;;;;;-0.47;100.00;96593.81;4202632;28;20048;-73
2022/11/22 03:31:17;;;;;;;9.95;4.75;;;;;;;-0.47;100.00;96588.38;4202441;28;21316;-74
2022/11/22 03:33:17;;;;;;;7.63;4.65;;;;;;;-0.47;100.00;96601.19;4202217;28;20521;-73
2022/11/22 03:35:17;;;;;;;9.95;5.57;;;;;;;-0.52;100.00;96591.34;4203012;28;20120;-73
2022/11/22 03:37:18;;;;;;;7.95;4.95;;;;;;;-0.53;100.00;96592.50;4202448;28;20048;-73
2022/11/22 03:39:18;;;;;;;11.77;5.63;;;;;;;-0.51;100.00;96609.22;4203510;28;20078;-73
2022/11/22 03:41:18;;;;;;;7.50;4.63;;;;;;;-0.53;100.00;96599.88;4203100;28;20055;-73
2022/11/22 03:43:19;;;;;;;9.70;5.13;;;;;;;-0.52;100.00;96601.44;4201581;28;20036;-74
2022/11/22 03:45:19;;;;;;;10.63;5.88;;;;;;;-0.46;100.00;96608.19;4202194;28;20177;-73
2022/11/22 03:47:20;;;;;;;12.52;6.88;;;;;;;-0.48;100.00;96597.69;4202709;28;20044;-74
2022/11/22 03:49:20;;;;;;;11.05;6.85;;;;;;;-0.49;100.00;96608.91;4202537;28;20056;-73
2022/11/22 03:51:21;;;;;;;13.82;6.75;;;;;;;-0.53;100.00;96619.66;4202424;28;20135;-74
2022/11/22 03:53:22;;;;;;;11.18;6.65;;;;;;;-0.55;100.00;96613.00;4201821;28;20092;-74
2022/11/22 03:55:22;;;;;;;10.32;6.35;;;;;;;-0.57;100.00;96606.00;4203215;28;20048;-73
2022/11/22 03:57:22;;;;;;;11.23;6.15;;;;;;;-0.55;100.00;96610.28;4200688;28;20090;-73
2022/11/22 03:59:23;;;;;;;9.30;5.55;;;;;;;-0.55;100.00;96608.38;4202673;28;20043;-73
2022/11/22 04:01:23;;;;;;;9.68;5.45;;;;;;;-0.57;100.00;96597.06;4202851;28;20055;-73
2022/11/22 04:03:24;;;;;;;11.90;6.28;;;;;;;-0.59;100.00;96597.41;4202748;28;20050;-73
2022/11/22 04:05:24;;;;;;;15.25;8.20;;;;;;;-0.60;100.00;96603.19;4202468;28;20044;-73
2022/11/22 04:07:25;;;;;;;12.23;7.40;;;;;;;-0.58;100.00;96609.06;4202200;28;20056;-73
2022/11/22 04:09:25;;;;;;;11.75;6.65;;;;;;;-0.58;100.00;96620.72;4202902;28;20048;-73
2022/11/22 04:11:26;;;;;;;10.93;6.78;;;;;;;-0.59;100.00;96624.56;4201685;28;20076;-73
2022/11/22 04:15:05;;;;;;;12.98;7.22;;;;;;;-0.59;100.00;96608.25;4201463;28;20154;-73
2022/11/22 04:15:47;;;;;;;10.18;6.30;;;;;;;-0.58;100.00;96604.44;4202275;28;20052;-74
2022/11/22 04:17:47;;;;;;;11.82;6.25;;;;;;;-0.57;100.00;96602.50;4202283;28;20047;-73
2022/11/22 04:21:32;;;;;;;10.80;5.47;;;;;;;-0.58;100.00;96601.72;4202385;28;20054;-74
2022/11/22 04:22:17;;;;;;;10.23;5.95;;;;;;;-0.53;100.00;96594.44;4200522;28;20044;-74
2022/11/22 04:26:36;;;;;;;9.88;5.85;;;;;;;-0.54;100.00;96590.94;4201446;28;20327;-73
2022/11/22 04:28:36;;;;;;;11.25;5.65;;;;;;;-0.54;100.00;96598.28;4202058;28;20044;-74
2022/11/22 04:32:56;;;;;;;9.77;6.03;;;;;;;-0.53;100.00;96599.88;4201168;28;20609;-74
2022/11/22 04:34:56;;;;;;;10.15;5.55;;;;;;;-0.55;100.00;96586.63;4202187;28;20075;-73
2022/11/22 04:36:56;;;;;;;9.48;6.07;;;;;;;-0.54;100.00;96599.06;4202450;28;20163;-74
2022/11/22 04:38:56;;;;;;;9.13;6.05;;;;;;;-0.52;100.00;96593.28;4202353;28;20511;-73
2022/11/22 04:40:57;;;;;;;11.50;6.05;;;;;;;-0.54;100.00;96590.13;4201549;28;20042;-74
2022/11/22 04:45:17;;;;;;;9.93;6.60;;;;;;;-0.54;100.00;96604.50;4200539;28;20066;-74
2022/11/22 04:49:37;;;;;;;10.48;6.28;;;;;;;-0.53;100.00;96602.56;4202470;28;20486;-74
2022/11/22 04:53:56;;;;;;;9.48;5.85;;;;;;;-0.53;100.00;96603.38;4198962;28;20397;-73
2022/11/22 04:55:56;;;;;;;9.88;6.32;;;;;;;-0.52;100.00;96615.81;4199349;28;20311;-73
2022/11/22 04:57:57;;;;;;;10.60;5.40;;;;;;;-0.50;100.00;96610.00;4200298;28;20054;-74
2022/11/22 04:59:57;;;;;;;10.10;5.88;;;;;;;-0.49;100.00;96608.91;4201669;28;20150;-74
2022/11/22 05:01:57;;;;;;;7.85;5.15;;;;;;;-0.52;100.00;96604.94;4201737;28;20055;-73
2022/11/22 05:03:57;;;;;;;10.32;5.35;;;;;;;-0.51;100.00;96609.22;4201537;28;20039;-73
2022/11/22 05:06:02;;;;;;;8.52;4.85;;;;;;;-0.52;100.00;96606.88;4199499;28;20041;-73
2022/11/22 05:08:04;;;;;;;9.35;6.10;;;;;;;-0.49;100.00;96614.34;4199002;28;20470;-73
2022/11/22 05:10:04;;;;;;;11.82;5.93;;;;;;;-0.49;100.00;96620.56;4203183;28;20637;-74
2022/11/22 05:12:05;;;;;;;9.13;5.80;;;;;;;-0.46;100.00;96617.13;4203796;28;20032;-74
2022/11/22 05:14:05;;;;;;;8.50;5.55;;;;;;;-0.45;100.00;96615.19;4201058;28;20383;-73
2022/11/22 05:16:09;;;;;;;9.95;5.57;;;;;;;-0.42;100.00;96625.34;4203337;28;20035;-74
2022/11/22 05:18:10;;;;;;;8.93;5.40;;;;;;;-0.43;100.00;96632.72;4202245;28;20037;-73
2022/11/22 05:20:10;;;;;;;9.75;5.10;;;;;;;-0.45;100.00;96624.13;4200613;28;20028;-73
2022/11/22 05:22:10;;;;;;;10.02;4.80;;;;;;;-0.43;100.00;96629.22;4199550;28;20039;-73
2022/11/22 05:24:11;;;;;;;7.22;5.05;;;;;;;-0.42;100.00;96625.34;4199919;28;20444;-74
2022/11/22 05:26:11;;;;;;;9.35;5.35;;;;;;;-0.44;100.00;96616.78;4200379;28;20063;-73
2022/11/22 05:28:11;;;;;;;8.32;5.25;;;;;;;-0.42;100.00;96626.13;4202035;28;20123;-73
2022/11/22 05:30:12;;;;;;;7.53;4.95;;;;;;;-0.39;100.00;96616.50;4199753;28;20469;-73
2022/11/22 05:32:12;;;;;;;8.27;4.88;;;;;;;-0.39;100.00;96621.94;4202754;28;20480;-74
2022/11/22 05:34:13;;;;;;;9.02;4.93;;;;;;;-0.37;100.00;96614.22;4203429;28;20032;-73
2022/11/22 05:36:13;;;;;;;9.45;5.00;;;;;;;-0.34;100.00;96616.22;4203078;28;20453;-73
2022/11/22 05:38:14;;;;;;;8.93;4.60;;;;;;;-0.34;100.00;96611.59;4204856;28;20035;-73
2022/11/22 05:40:14;;;;;;;6.18;4.13;;;;;;;-0.34;100.00;96619.72;4202388;28;20469;-74
2022/11/22 05:42:14;;;;;;;8.60;5.18;;;;;;;-0.34;100.00;96606.16;4203028;28;20318;-74
2022/11/22 05:44:15;;;;;;;6.40;4.80;;;;;;;-0.31;100.00;96613.63;4202744;28;20116;-73
2022/11/22 05:46:20;;;;;;;9.98;6.15;;;;;;;-0.32;100.00;96617.47;4203261;28;20059;-73
2022/11/22 05:48:20;;;;;;;15.65;9.50;;;;;;;-0.31;100.00;96623.69;4203756;28;20165;-73
2022/11/22 05:50:21;;;;;;;10.43;6.68;;;;;;;-0.31;100.00;96621.75;4203999;28;20376;-73
2022/11/22 05:52:21;;;;;;;8.77;6.35;;;;;;;-0.30;100.00;96636.94;4198545;28;20211;-73
2022/11/22 05:54:21;;;;;;;10.25;7.53;;;;;;;-0.30;100.00;96630.69;4199885;28;20044;-73
2022/11/22 05:56:23;;;;;;;8.02;6.30;;;;;;;-0.26;100.00;96641.66;4141677;27;20044;-73
2022/11/22 05:58:23;;;;;;;16.92;7.60;;;;;;;-0.28;100.00;96642.00;4202050;28;20113;-74
2022/11/22 06:00:23;;;;;;;15.80;6.53;;;;;;;-0.28;100.00;96642.00;4202996;28;20052;-74
2022/11/22 06:02:24;;;;;;;9.10;5.85;;;;;;;-0.26;100.00;96644.38;4203055;28;20366;-73
2022/11/22 06:04:24;;;;;;;8.20;5.60;;;;;;;-0.26;100.00;96641.66;4203666;28;20036;-74
2022/11/22 06:06:25;;;;;;;9.80;5.50;;;;;;;-0.26;100.00;96645.16;4204116;28;20038;-73
2022/11/22 06:08:31;;;;;;;9.30;5.75;;;;;;;-0.26;100.00;96647.09;4201590;28;20535;-74
2022/11/22 06:10:35;;;;;;;9.00;5.30;;;;;;;-0.28;100.00;96650.94;4198506;28;20044;-74
2022/11/22 06:12:36;;;;;;;8.05;4.90;;;;;;;-0.29;100.00;96654.81;4200976;28;20115;-73
2022/11/22 06:14:36;;;;;;;7.70;4.68;;;;;;;-0.29;100.00;96652.09;4200104;28;20091;-74
2022/11/22 06:16:37;;;;;;;7.78;5.25;;;;;;;-0.26;100.00;96660.66;4203133;28;20072;-73
2022/11/22 06:18:38;;;;;;;7.68;4.82;;;;;;;-0.26;100.00;96652.53;4201916;28;20040;-74
2022/11/22 06:20:38;;;;;;;11.52;6.13;;;;;;;-0.25;100.00;96657.59;4201410;28;20048;-74
2022/11/22 06:22:38;;;;;;;12.70;5.88;;;;;;;-0.18;100.00;96654.25;4201396;28;20079;-73
2022/11/22 06:24:39;;;;;;;12.10;6.05;;;;;;;-0.16;100.00;96658.22;4200619;28;20327;-74
2022/11/22 06:26:39;;;;;;;11.25;5.35;;;;;;;-0.15;100.00;96664.44;4201961;28;20143;-74
2022/11/22 06:28:40;;;;;;;10.40;5.35;;;;;;;-0.15;100.00;96659.03;4199298;28;20825;-74
2022/11/22 06:30:40;;;;;;;11.23;6.88;;;;;;;-0.06;100.00;96665.06;4202782;28;20047;-74
2022/11/22 06:32:40;;;;;;;7.80;5.45;;;;;;;-0.06;100.00;96660.41;4201469;28;20046;-73
2022/11/22 06:34:41;;;;;;;10.98;5.53;;;;;;;0.01;100.00;96664.44;4201576;28;20032;-73
2022/11/22 06:36:41;;;;;;;10.32;5.95;;;;;;;0.02;100.00;96674.97;4202104;28;20099;-73
2022/11/22 06:38:43;;;;;;;12.25;6.95;;;;;;;0.02;100.00;96672.25;4203371;28;20113;-73
2022/11/22 06:40:43;;;;;;;9.83;5.50;;;;;;;0.06;100.00;96675.03;4202301;28;20044;-73
2022/11/22 06:42:43;;;;;;;12.10;6.07;;;;;;;0.06;100.00;96675.81;4201591;28;20270;-74
2022/11/22 06:44:44;;;;;;;10.38;5.43;;;;;;;0.11;100.00;96678.28;4202371;28;20089;-73
2022/11/22 06:46:44;;;;;;;9.73;6.13;;;;;;;0.11;100.00;96683.72;4203400;28;20190;-74
2022/11/22 06:48:45;;;;;;;9.98;5.43;;;;;;;0.14;100.00;96682.22;4203254;28;20597;-74
2022/11/22 06:50:45;;;;;;;13.63;6.28;;;;;;;0.16;100.00;96677.19;4203421;28;20043;-73
2022/11/22 06:52:52;;;;;;;8.50;5.05;;;;;;;0.18;100.00;96678.44;4202705;28;20036;-73
2022/11/22 06:54:52;;;;;;;7.70;4.57;;;;;;;0.21;100.00;96680.44;4203153;28;20062;-73
2022/11/22 06:56:53;;;;;;;8.32;5.03;;;;;;;0.25;100.00;96692.22;4203574;28;20048;-73
2022/11/22 06:58:53;;;;;;;6.70;4.28;;;;;;;0.28;100.00;96696.16;4203422;28;20059;-73
2022/11/22 07:01:01;;;;;;;8.38;4.97;;;;;;;0.32;100.00;96704.38;4203358;28;20653;-74
2022/11/22 07:03:02;;;;;;;6.18;4.00;;;;;;;0.35;100.00;96695.53;4202386;28;20063;-73
2022/11/22 07:05:02;;;;;;;9.00;4.60;;;;;;;0.37;100.00;96691.28;4203539;28;20368;-73
2022/11/22 07:07:02;;;;;;;8.20;4.70;;;;;;;0.44;100.00;96699.63;4203261;28;20075;-73
2022/11/22 07:09:09;;;;;;;7.93;4.63;;;;;;;0.54;100.00;96695.53;4202930;28;20488;-74
2022/11/22 07:11:11;;;;;;;8.80;5.05;;;;;;;0.58;100.00;96688.25;4203094;28;20040;-74
2022/11/22 07:13:11;;;;;;;12.30;4.57;;;;;;;0.62;100.00;96700.00;4201825;28;20122;-73
2022/11/22 07:15:12;;;;;;;7.72;4.78;;;;;;;0.57;100.00;96695.59;4203075;28;20083;-73
2022/11/22 07:17:12;;;;;;;10.88;5.45;;;;;;;0.57;100.00;96697.53;4203206;28;20735;-73
2022/11/22 07:19:12;;;;;;;10.20;5.03;;;;;;;0.59;100.00;96708.09;4203442;28;20520;-73
2022/11/22 07:21:17;;;;;;;8.10;5.43;;;;;;;0.56;100.00;96706.84;4202179;28;20040;-74
2022/11/22 07:23:18;;;;;;;17.52;7.68;;;;;;;0.63;100.00;96712.47;4202308;28;20047;-73
2022/11/22 07:25:18;;;;;;;41.60;20.33;;;;;;;0.66;100.00;96710.94;4203551;28;20040;-73
2022/11/22 07:27:19;;;;;;;35.45;15.75;;;;;;;0.62;100.00;96718.25;4202872;28;20147;-73
2022/11/22 07:29:19;;;;;;;35.53;16.48;;;;;;;0.60;100.00;96726.00;4202816;28;20086;-73
2022/11/22 07:31:20;;;;;;;46.75;19.02;;;;;;;0.62;100.00;96729.94;4203020;28;20063;-73
2022/11/22 07:33:20;;;;;;;57.80;20.35;;;;;;;0.62;100.00;96721.78;4202133;28;20047;-73
2022/11/22 07:35:20;;;;;;;46.30;17.42;;;;;;;0.62;100.00;96723.72;4202316;28;20083;-74
2022/11/22 07:37:21;;;;;;;43.08;18.98;;;;;;;0.63;100.00;96728.00;4203469;28;20215;-73
2022/11/22 07:39:21;;;;;;;46.08;17.73;;;;;;;0.59;100.00;96727.16;4202326;28;20047;-72
2022/11/22 07:41:21;;;;;;;28.08;13.23;;;;;;;0.61;100.00;96727.56;4202630;28;20036;-73
2022/11/22 07:43:21;;;;;;;32.05;13.77;;;;;;;0.60;100.00;96743.13;4202197;28;20483;-73
2022/11/22 07:45:22;;;;;;;24.98;12.57;;;;;;;0.59;100.00;96751.66;4202374;28;20130;-73
2022/11/22 07:47:22;;;;;;;18.13;11.85;;;;;;;0.56;100.00;96742.25;4202675;28;20127;-73
2022/11/22 07:49:23;;;;;;;24.98;11.63;;;;;;;0.55;100.00;96744.16;4202370;28;20067;-73
2022/11/22 07:51:24;;;;;;;23.80;11.02;;;;;;;0.53;100.00;96743.75;4202238;28;20075;-73
2022/11/22 07:53:24;;;;;;;22.77;11.25;;;;;;;0.56;100.00;96742.25;4201863;28;20074;-73
2022/11/22 07:55:26;;;;;;;21.45;10.95;;;;;;;0.54;100.00;96745.31;4202461;28;20406;-73
2022/11/22 07:57:26;;;;;;;37.17;16.30;;;;;;;0.54;100.00;96744.53;4202711;28;20139;-73
2022/11/22 07:59:26;;;;;;;41.40;17.55;;;;;;;0.58;100.00;96756.31;4202211;28;20263;-73
2022/11/22 08:01:27;;;;;;;40.33;20.48;;;;;;;0.63;100.00;96760.66;4202999;28;20484;-73
2022/11/22 08:03:27;;;;;;;50.25;24.05;;;;;;;0.63;100.00;96755.22;4202167;28;20406;-73
2022/11/22 08:05:27;;;;;;;51.65;24.95;;;;;;;0.64;100.00;96745.91;4202282;28;20047;-74
2022/11/22 08:07:28;;;;;;;51.42;22.40;;;;;;;0.69;100.00;96751.88;4202604;28;20303;-74
2022/11/22 08:09:28;;;;;;;59.63;26.80;;;;;;;0.76;100.00;96740.34;4202427;28;20073;-73
2022/11/22 08:11:28;;;;;;;39.70;17.77;;;;;;;0.79;100.00;96740.41;4202706;28;20040;-73
2022/11/22 08:13:30;;;;;;;20.23;11.02;;;;;;;0.92;100.00;96743.81;4201657;28;20097;-73
2022/11/22 08:15:31;;;;;;;28.35;12.32;;;;;;;0.97;100.00;96754.41;4202124;28;20497;-73
2022/11/22 08:17:31;;;;;;;32.78;14.85;;;;;;;0.94;100.00;96766.03;4202959;28;20048;-74
2022/11/22 08:19:34;;;;;;;37.08;17.90;;;;;;;0.91;100.00;96776.81;4202152;28;20401;-73
2022/11/22 08:21:35;;;;;;;34.10;17.00;;;;;;;0.95;100.00;96775.78;4202501;28;20484;-73
2022/11/22 08:23:36;;;;;;;30.52;13.18;;;;;;;0.95;100.00;96764.88;4201399;28;20621;-73
2022/11/22 08:25:36;;;;;;;28.10;13.40;;;;;;;0.98;100.00;96769.59;4202794;28;20048;-73
2022/11/22 08:27:41;;;;;;;19.02;10.23;;;;;;;1.07;100.00;96772.13;4201976;28;20558;-73
2022/11/22 08:29:41;;;;;;;22.05;11.27;;;;;;;1.12;100.00;96772.63;4202144;28;20040;-73
2022/11/22 08:31:41;;;;;;;13.85;7.15;;;;;;;1.20;100.00;96792.63;4202213;28;20047;-73
2022/11/22 08:33:42;;;;;;;16.60;8.82;;;;;;;1.28;100.00;96785.41;4201466;28;20107;-74
2022/11/22 08:35:42;;;;;;;16.08;6.18;;;;;;;1.34;100.00;96790.22;4202027;28;20419;-74
2022/11/22 08:37:42;;;;;;;13.65;6.65;;;;;;;1.40;100.00;96788.75;4202925;28;20104;-74
2022/11/22 08:39:43;;;;;;;8.27;5.05;;;;;;;1.61;100.00;96798.50;4202517;28;20104;-74
2022/11/22 08:41:43;;;;;;;11.13;6.43;;;;;;;1.71;100.00;96794.41;4201994;28;20067;-74
2022/11/22 08:43:44;;;;;;;14.85;7.13;;;;;;;1.73;100.00;96803.00;4203466;28;20044;-73
2022/11/22 08:45:44;;;;;;;11.85;5.72;;;;;;;1.73;100.00;96811.97;4205604;28;20040;-74
2022/11/22 08:47:44;;;;;;;10.15;5.65;;;;;;;1.71;100.00;96827.91;4205030;28;20044;-74
2022/11/22 08:49:45;;;;;;;10.52;5.28;;;;;;;1.66;100.00;96815.38;4205261;28;20048;-73
2022/11/22 08:51:45;;;;;;;12.73;5.18;;;;;;;1.69;100.00;96827.50;4205263;28;20032;-74
2022/11/22 08:53:45;;;;;;;8.32;5.28;;;;;;;1.70;100.00;96831.78;4204928;28;20568;-74
2022/11/22 08:55:46;;;;;;;16.17;8.60;;;;;;;1.73;100.00;96830.28;4205190;28;20128;-74
2022/11/22 08:57:46;;;;;;;18.30;10.77;;;;;;;1.74;100.00;96834.56;4205315;28;20078;-74
2022/11/22 08:59:47;;;;;;;18.90;10.90;;;;;;;1.75;100.00;96833.47;4205010;28;20063;-73
2022/11/22 09:01:47;;;;;;;19.60;10.27;;;;;;;1.75;100.00;96836.97;4204544;28;20604;-74
2022/11/22 09:03:48;;;;;;;19.52;8.93;;;;;;;1.74;100.00;96843.56;4205545;28;20036;-74
2022/11/22 09:05:48;;;;;;;13.05;7.82;;;;;;;1.78;100.00;96843.63;4205721;28;20526;-74
2022/11/22 09:07:48;;;;;;;12.43;7.63;;;;;;;1.81;100.00;96848.34;4205205;28;20139;-74
2022/11/22 09:09:49;;;;;;;11.95;6.60;;;;;;;1.84;100.00;96836.75;4205197;28;20041;-74
2022/11/22 09:11:49;;;;;;;12.88;6.68;;;;;;;1.85;100.00;96843.78;4204864;28;20048;-74
2022/11/22 09:13:49;;;;;;;11.32;5.97;;;;;;;1.89;100.00;96831.75;4204131;28;20036;-74
2022/11/22 09:15:50;;;;;;;10.65;5.65;;;;;;;1.93;100.00;96843.53;4204805;28;20139;-74
2022/11/22 09:17:50;;;;;;;9.02;5.57;;;;;;;1.96;100.00;96845.53;4204142;28;20115;-74
2022/11/22 09:19:50;;;;;;;8.18;4.97;;;;;;;1.99;100.00;96835.88;4205089;28;20040;-74
2022/11/22 09:21:51;;;;;;;9.05;5.13;;;;;;;2.03;100.00;96850.34;4204820;28;20051;-74
2022/11/22 09:23:53;;;;;;;98.50;25.35;;;;;;;2.07;100.00;96837.56;4204209;28;20480;-74
2022/11/22 09:26:01;;;;;;;72.82;21.60;;;;;;;2.10;100.00;96838.78;4204702;28;20048;-74
2022/11/22 09:28:02;;;;;;;42.33;14.10;;;;;;;2.10;100.00;96844.25;4204750;28;20274;-74
2022/11/22 09:30:02;;;;;;;36.67;12.38;;;;;;;2.17;100.00;96844.38;4204822;28;20085;-74
2022/11/22 09:32:03;;;;;;;47.90;14.30;;;;;;;2.21;100.00;96840.53;4203860;28;20089;-74